sensor_id;sensor_type;location;lat;lon;timestamp;P1;durP1;ratioP1;P2;durP2;ratioP2
33074;SDS011;19433;51.292;6.868;2022-09-17T00:00:58;3.40;;;1.40;;
33074;SDS011;19433;51.292;6.868;2022-09-17T00:03:40;3.17;;;2.00;;
33074;SDS011;19433;51.292;6.868;2022-09-17T00:14:28;3.70;;;1.93;;
33074;SDS011;19433;51.292;6.868;2022-09-17T00:17:21;3.47;;;2.00;;
33074;SDS011;19433;51.292;6.868;2022-09-17T00:20:26;4.60;;;2.10;;
33074;SDS011;19433;51.292;6.868;2022-09-17T00:23:14;2.97;;;1.50;;
33074;SDS011;19433;51.292;6.868;2022-09-17T00:25:54;4.93;;;1.87;;
33074;SDS011;19433;51.292;6.868;2022-09-17T00:28:19;4.73;;;2.10;;
33074;SDS011;19433;51.292;6.868;2022-09-17T00:30:45;4.77;;;1.77;;
33074;SDS011;19433;51.292;6.868;2022-09-17T00:33:11;5.60;;;2.20;;
33074;SDS011;19433;51.292;6.868;2022-09-17T00:35:38;4.17;;;1.87;;
33074;SDS011;19433;51.292;6.868;2022-09-17T00:38:04;6.00;;;1.80;;
33074;SDS011;19433;51.292;6.868;2022-09-17T00:40:29;4.20;;;2.07;;
33074;SDS011;19433;51.292;6.868;2022-09-17T00:42:55;4.40;;;1.83;;
33074;SDS011;19433;51.292;6.868;2022-09-17T00:45:20;2.63;;;1.67;;
33074;SDS011;19433;51.292;6.868;2022-09-17T00:47:50;8.67;;;2.10;;
33074;SDS011;19433;51.292;6.868;2022-09-17T00:50:31;5.57;;;2.10;;
33074;SDS011;19433;51.292;6.868;2022-09-17T00:53:03;3.07;;;2.37;;
33074;SDS011;19433;51.292;6.868;2022-09-17T00:55:32;8.97;;;2.57;;
33074;SDS011;19433;51.292;6.868;2022-09-17T00:58:01;11.73;;;2.10;;
33074;SDS011;19433;51.292;6.868;2022-09-17T01:00:30;5.37;;;2.10;;
33074;SDS011;19433;51.292;6.868;2022-09-17T01:02:56;7.00;;;2.23;;
33074;SDS011;19433;51.292;6.868;2022-09-17T01:05:27;6.87;;;2.57;;
33074;SDS011;19433;51.292;6.868;2022-09-17T01:08:01;4.97;;;2.50;;
33074;SDS011;19433;51.292;6.868;2022-09-17T01:13:38;3.37;;;2.73;;
33074;SDS011;19433;51.292;6.868;2022-09-17T01:16:23;8.70;;;3.43;;
33074;SDS011;19433;51.292;6.868;2022-09-17T01:21:59;10.70;;;2.77;;
33074;SDS011;19433;51.292;6.868;2022-09-17T01:31:02;3.73;;;2.53;;
33074;SDS011;19433;51.292;6.868;2022-09-17T01:33:40;6.80;;;3.20;;
33074;SDS011;19433;51.292;6.868;2022-09-17T01:36:21;7.23;;;3.47;;
33074;SDS011;19433;51.292;6.868;2022-09-17T01:42:09;4.07;;;3.67;;
33074;SDS011;19433;51.292;6.868;2022-09-17T01:44:48;9.73;;;3.87;;
33074;SDS011;19433;51.292;6.868;2022-09-17T01:47:22;9.20;;;4.30;;
33074;SDS011;19433;51.292;6.868;2022-09-17T01:49:55;4.63;;;3.00;;
33074;SDS011;19433;51.292;6.868;2022-09-17T01:52:26;6.73;;;3.73;;
33074;SDS011;19433;51.292;6.868;2022-09-17T01:54:53;5.63;;;3.10;;
33074;SDS011;19433;51.292;6.868;2022-09-17T01:57:25;7.03;;;3.40;;
33074;SDS011;19433;51.292;6.868;2022-09-17T02:00:06;8.83;;;4.00;;
33074;SDS011;19433;51.292;6.868;2022-09-17T02:05:29;9.73;;;4.10;;
33074;SDS011;19433;51.292;6.868;2022-09-17T02:08:25;10.03;;;4.40;;
33074;SDS011;19433;51.292;6.868;2022-09-17T02:11:02;8.40;;;4.10;;
33074;SDS011;19433;51.292;6.868;2022-09-17T02:13:36;5.67;;;3.10;;
33074;SDS011;19433;51.292;6.868;2022-09-17T02:16:19;4.40;;;3.73;;
33074;SDS011;19433;51.292;6.868;2022-09-17T02:19:35;6.37;;;3.50;;
33074;SDS011;19433;51.292;6.868;2022-09-17T02:24:23;5.20;;;3.17;;
33074;SDS011;19433;51.292;6.868;2022-09-17T02:26:58;9.03;;;3.57;;
33074;SDS011;19433;51.292;6.868;2022-09-17T02:29:37;11.40;;;3.10;;
33074;SDS011;19433;51.292;6.868;2022-09-17T02:32:07;6.70;;;2.73;;
33074;SDS011;19433;51.292;6.868;2022-09-17T02:34:33;6.93;;;3.23;;
33074;SDS011;19433;51.292;6.868;2022-09-17T02:36:59;8.13;;;3.97;;
33074;SDS011;19433;51.292;6.868;2022-09-17T02:39:26;5.90;;;2.93;;
33074;SDS011;19433;51.292;6.868;2022-09-17T02:44:32;14.07;;;3.17;;
33074;SDS011;19433;51.292;6.868;2022-09-17T02:52:38;8.60;;;3.80;;
33074;SDS011;19433;51.292;6.868;2022-09-17T03:00:36;6.67;;;2.60;;
33074;SDS011;19433;51.292;6.868;2022-09-17T03:03:07;4.90;;;2.50;;
33074;SDS011;19433;51.292;6.868;2022-09-17T03:05:37;8.53;;;3.50;;
33074;SDS011;19433;51.292;6.868;2022-09-17T03:08:06;6.83;;;2.40;;
33074;SDS011;19433;51.292;6.868;2022-09-17T03:10:33;9.93;;;2.33;;
33074;SDS011;19433;51.292;6.868;2022-09-17T03:12:58;6.40;;;2.13;;
33074;SDS011;19433;51.292;6.868;2022-09-17T03:15:24;7.07;;;2.20;;
33074;SDS011;19433;51.292;6.868;2022-09-17T03:17:49;5.20;;;2.20;;
33074;SDS011;19433;51.292;6.868;2022-09-17T03:20:15;14.00;;;2.83;;
33074;SDS011;19433;51.292;6.868;2022-09-17T03:22:40;10.47;;;2.27;;
33074;SDS011;19433;51.292;6.868;2022-09-17T03:25:06;7.40;;;2.30;;
33074;SDS011;19433;51.292;6.868;2022-09-17T03:27:32;8.43;;;2.70;;
33074;SDS011;19433;51.292;6.868;2022-09-17T03:29:57;6.10;;;2.30;;
33074;SDS011;19433;51.292;6.868;2022-09-17T03:32:23;7.13;;;2.47;;
33074;SDS011;19433;51.292;6.868;2022-09-17T03:34:48;7.87;;;2.47;;
33074;SDS011;19433;51.292;6.868;2022-09-17T03:37:14;11.20;;;3.00;;
33074;SDS011;19433;51.292;6.868;2022-09-17T03:39:39;2.10;;;1.77;;
33074;SDS011;19433;51.292;6.868;2022-09-17T03:42:04;4.90;;;1.87;;
33074;SDS011;19433;51.292;6.868;2022-09-17T03:44:30;6.17;;;2.50;;
33074;SDS011;19433;51.292;6.868;2022-09-17T03:46:55;5.73;;;2.00;;
33074;SDS011;19433;51.292;6.868;2022-09-17T03:49:20;5.43;;;2.30;;
33074;SDS011;19433;51.292;6.868;2022-09-17T03:51:47;3.50;;;2.10;;
33074;SDS011;19433;51.292;6.868;2022-09-17T03:54:13;5.50;;;2.40;;
33074;SDS011;19433;51.292;6.868;2022-09-17T03:56:38;6.30;;;2.30;;
33074;SDS011;19433;51.292;6.868;2022-09-17T03:59:03;6.63;;;2.53;;
33074;SDS011;19433;51.292;6.868;2022-09-17T04:01:28;10.87;;;2.57;;
33074;SDS011;19433;51.292;6.868;2022-09-17T04:03:54;4.77;;;1.80;;
33074;SDS011;19433;51.292;6.868;2022-09-17T04:06:19;3.23;;;1.90;;
33074;SDS011;19433;51.292;6.868;2022-09-17T04:08:45;3.80;;;2.37;;
33074;SDS011;19433;51.292;6.868;2022-09-17T04:11:10;4.63;;;1.63;;
33074;SDS011;19433;51.292;6.868;2022-09-17T04:13:35;9.53;;;2.20;;
33074;SDS011;19433;51.292;6.868;2022-09-17T04:16:01;7.33;;;1.90;;
33074;SDS011;19433;51.292;6.868;2022-09-17T04:18:26;4.17;;;1.80;;
33074;SDS011;19433;51.292;6.868;2022-09-17T04:20:52;7.47;;;2.10;;
33074;SDS011;19433;51.292;6.868;2022-09-17T04:23:17;8.60;;;1.70;;
33074;SDS011;19433;51.292;6.868;2022-09-17T04:25:43;6.40;;;1.83;;
33074;SDS011;19433;51.292;6.868;2022-09-17T04:28:08;4.27;;;1.70;;
33074;SDS011;19433;51.292;6.868;2022-09-17T04:30:33;9.40;;;2.13;;
33074;SDS011;19433;51.292;6.868;2022-09-17T04:32:59;4.10;;;2.10;;
33074;SDS011;19433;51.292;6.868;2022-09-17T04:35:24;4.20;;;1.53;;
33074;SDS011;19433;51.292;6.868;2022-09-17T04:37:53;6.10;;;2.03;;
33074;SDS011;19433;51.292;6.868;2022-09-17T04:40:19;9.40;;;2.50;;
33074;SDS011;19433;51.292;6.868;2022-09-17T04:42:45;8.47;;;1.60;;
33074;SDS011;19433;51.292;6.868;2022-09-17T04:45:11;9.87;;;2.40;;
33074;SDS011;19433;51.292;6.868;2022-09-17T04:47:39;8.23;;;2.63;;
33074;SDS011;19433;51.292;6.868;2022-09-17T04:50:05;8.17;;;1.97;;
33074;SDS011;19433;51.292;6.868;2022-09-17T04:52:30;8.33;;;2.40;;
33074;SDS011;19433;51.292;6.868;2022-09-17T04:54:56;6.90;;;2.00;;
33074;SDS011;19433;51.292;6.868;2022-09-17T04:57:22;6.17;;;2.77;;
33074;SDS011;19433;51.292;6.868;2022-09-17T04:59:49;5.17;;;1.87;;
33074;SDS011;19433;51.292;6.868;2022-09-17T05:02:15;7.37;;;2.17;;
33074;SDS011;19433;51.292;6.868;2022-09-17T05:04:40;8.00;;;2.20;;
33074;SDS011;19433;51.292;6.868;2022-09-17T05:07:05;7.27;;;2.40;;
33074;SDS011;19433;51.292;6.868;2022-09-17T05:09:31;4.40;;;1.90;;
33074;SDS011;19433;51.292;6.868;2022-09-17T05:11:56;14.97;;;2.90;;
33074;SDS011;19433;51.292;6.868;2022-09-17T05:14:21;6.33;;;1.70;;
33074;SDS011;19433;51.292;6.868;2022-09-17T05:16:46;3.87;;;2.13;;
33074;SDS011;19433;51.292;6.868;2022-09-17T05:19:12;8.97;;;2.00;;
33074;SDS011;19433;51.292;6.868;2022-09-17T05:21:37;4.83;;;1.87;;
33074;SDS011;19433;51.292;6.868;2022-09-17T05:24:02;7.40;;;2.63;;
33074;SDS011;19433;51.292;6.868;2022-09-17T05:26:28;8.57;;;3.20;;
33074;SDS011;19433;51.292;6.868;2022-09-17T05:28:53;7.70;;;2.53;;
33074;SDS011;19433;51.292;6.868;2022-09-17T05:31:18;6.00;;;1.60;;
33074;SDS011;19433;51.292;6.868;2022-09-17T05:33:44;6.27;;;1.90;;
33074;SDS011;19433;51.292;6.868;2022-09-17T05:36:09;7.30;;;1.70;;
33074;SDS011;19433;51.292;6.868;2022-09-17T05:38:34;9.43;;;2.00;;
33074;SDS011;19433;51.292;6.868;2022-09-17T05:41:02;5.67;;;1.60;;
33074;SDS011;19433;51.292;6.868;2022-09-17T05:43:29;3.60;;;2.17;;
33074;SDS011;19433;51.292;6.868;2022-09-17T05:45:55;2.60;;;1.90;;
33074;SDS011;19433;51.292;6.868;2022-09-17T05:48:20;5.00;;;1.67;;
33074;SDS011;19433;51.292;6.868;2022-09-17T05:50:45;3.90;;;1.83;;
33074;SDS011;19433;51.292;6.868;2022-09-17T05:53:11;8.80;;;2.23;;
33074;SDS011;19433;51.292;6.868;2022-09-17T05:55:37;8.30;;;2.07;;
33074;SDS011;19433;51.292;6.868;2022-09-17T05:58:10;6.17;;;1.93;;
33074;SDS011;19433;51.292;6.868;2022-09-17T06:00:36;5.87;;;2.30;;
33074;SDS011;19433;51.292;6.868;2022-09-17T06:03:02;7.20;;;1.73;;
33074;SDS011;19433;51.292;6.868;2022-09-17T06:05:28;10.20;;;2.23;;
33074;SDS011;19433;51.292;6.868;2022-09-17T06:07:53;6.30;;;2.17;;
33074;SDS011;19433;51.292;6.868;2022-09-17T06:10:18;5.90;;;1.73;;
33074;SDS011;19433;51.292;6.868;2022-09-17T06:12:43;6.83;;;1.80;;
33074;SDS011;19433;51.292;6.868;2022-09-17T06:15:09;4.43;;;1.67;;
33074;SDS011;19433;51.292;6.868;2022-09-17T06:17:38;6.77;;;2.03;;
33074;SDS011;19433;51.292;6.868;2022-09-17T06:20:04;3.80;;;1.53;;
33074;SDS011;19433;51.292;6.868;2022-09-17T06:22:30;6.33;;;2.07;;
33074;SDS011;19433;51.292;6.868;2022-09-17T06:24:55;6.30;;;1.93;;
33074;SDS011;19433;51.292;6.868;2022-09-17T06:27:21;6.27;;;1.80;;
33074;SDS011;19433;51.292;6.868;2022-09-17T06:29:46;7.47;;;2.23;;
33074;SDS011;19433;51.292;6.868;2022-09-17T06:32:11;5.47;;;2.10;;
33074;SDS011;19433;51.292;6.868;2022-09-17T06:34:39;3.77;;;2.00;;
33074;SDS011;19433;51.292;6.868;2022-09-17T06:37:05;6.30;;;2.23;;
33074;SDS011;19433;51.292;6.868;2022-09-17T06:39:30;3.10;;;1.80;;
33074;SDS011;19433;51.292;6.868;2022-09-17T06:41:55;3.53;;;1.60;;
33074;SDS011;19433;51.292;6.868;2022-09-17T06:44:21;5.43;;;1.90;;
33074;SDS011;19433;51.292;6.868;2022-09-17T06:46:49;4.73;;;1.70;;
33074;SDS011;19433;51.292;6.868;2022-09-17T06:49:15;5.93;;;2.77;;
33074;SDS011;19433;51.292;6.868;2022-09-17T06:51:43;8.23;;;1.70;;
33074;SDS011;19433;51.292;6.868;2022-09-17T06:54:08;7.23;;;1.67;;
33074;SDS011;19433;51.292;6.868;2022-09-17T06:56:34;7.20;;;2.30;;
33074;SDS011;19433;51.292;6.868;2022-09-17T06:58:59;6.60;;;2.20;;
33074;SDS011;19433;51.292;6.868;2022-09-17T07:01:25;8.07;;;2.03;;
33074;SDS011;19433;51.292;6.868;2022-09-17T07:03:50;3.67;;;2.30;;
33074;SDS011;19433;51.292;6.868;2022-09-17T07:06:15;7.73;;;1.80;;
33074;SDS011;19433;51.292;6.868;2022-09-17T07:08:41;4.93;;;1.50;;
33074;SDS011;19433;51.292;6.868;2022-09-17T07:11:06;6.63;;;2.23;;
33074;SDS011;19433;51.292;6.868;2022-09-17T07:13:32;8.33;;;2.33;;
33074;SDS011;19433;51.292;6.868;2022-09-17T07:15:58;5.23;;;1.90;;
33074;SDS011;19433;51.292;6.868;2022-09-17T07:18:25;3.87;;;1.60;;
33074;SDS011;19433;51.292;6.868;2022-09-17T07:23:23;5.70;;;1.87;;
33074;SDS011;19433;51.292;6.868;2022-09-17T07:25:54;3.83;;;1.70;;
33074;SDS011;19433;51.292;6.868;2022-09-17T07:28:21;3.27;;;1.40;;
33074;SDS011;19433;51.292;6.868;2022-09-17T07:30:48;5.00;;;1.57;;
33074;SDS011;19433;51.292;6.868;2022-09-17T07:33:14;2.90;;;1.40;;
33074;SDS011;19433;51.292;6.868;2022-09-17T07:35:41;3.00;;;1.40;;
33074;SDS011;19433;51.292;6.868;2022-09-17T07:38:06;3.87;;;1.40;;
33074;SDS011;19433;51.292;6.868;2022-09-17T07:40:32;3.87;;;1.87;;
33074;SDS011;19433;51.292;6.868;2022-09-17T07:42:57;2.67;;;1.50;;
33074;SDS011;19433;51.292;6.868;2022-09-17T07:45:22;4.60;;;2.87;;
33074;SDS011;19433;51.292;6.868;2022-09-17T07:47:48;3.77;;;1.60;;
33074;SDS011;19433;51.292;6.868;2022-09-17T07:50:14;3.60;;;1.60;;
33074;SDS011;19433;51.292;6.868;2022-09-17T07:52:44;6.33;;;1.90;;
33074;SDS011;19433;51.292;6.868;2022-09-17T07:55:11;6.27;;;1.50;;
33074;SDS011;19433;51.292;6.868;2022-09-17T07:57:36;4.10;;;2.03;;
33074;SDS011;19433;51.292;6.868;2022-09-17T08:00:02;3.67;;;1.77;;
33074;SDS011;19433;51.292;6.868;2022-09-17T08:02:27;3.53;;;1.80;;
33074;SDS011;19433;51.292;6.868;2022-09-17T08:04:53;4.83;;;1.37;;
33074;SDS011;19433;51.292;6.868;2022-09-17T08:07:18;1.80;;;1.10;;
33074;SDS011;19433;51.292;6.868;2022-09-17T08:09:44;5.10;;;1.23;;
33074;SDS011;19433;51.292;6.868;2022-09-17T08:12:09;4.43;;;1.80;;
33074;SDS011;19433;51.292;6.868;2022-09-17T08:14:34;5.73;;;1.63;;
33074;SDS011;19433;51.292;6.868;2022-09-17T08:16:59;3.70;;;1.30;;
33074;SDS011;19433;51.292;6.868;2022-09-17T08:19:25;2.97;;;1.90;;
33074;SDS011;19433;51.292;6.868;2022-09-17T08:21:52;2.83;;;1.60;;
33074;SDS011;19433;51.292;6.868;2022-09-17T08:24:17;4.50;;;1.80;;
33074;SDS011;19433;51.292;6.868;2022-09-17T08:26:43;4.93;;;1.70;;
33074;SDS011;19433;51.292;6.868;2022-09-17T08:29:08;4.37;;;1.80;;
33074;SDS011;19433;51.292;6.868;2022-09-17T08:31:35;2.87;;;1.60;;
33074;SDS011;19433;51.292;6.868;2022-09-17T08:34:00;4.83;;;1.80;;
33074;SDS011;19433;51.292;6.868;2022-09-17T08:36:26;2.30;;;1.20;;
33074;SDS011;19433;51.292;6.868;2022-09-17T08:38:52;6.23;;;1.73;;
33074;SDS011;19433;51.292;6.868;2022-09-17T08:41:20;2.50;;;1.10;;
33074;SDS011;19433;51.292;6.868;2022-09-17T08:46:45;2.60;;;1.37;;
33074;SDS011;19433;51.292;6.868;2022-09-17T08:55:27;1.37;;;0.70;;
33074;SDS011;19433;51.292;6.868;2022-09-17T09:00:50;4.37;;;1.87;;
33074;SDS011;19433;51.292;6.868;2022-09-17T09:06:01;4.10;;;1.30;;
33074;SDS011;19433;51.292;6.868;2022-09-17T09:11:02;3.33;;;1.30;;
33074;SDS011;19433;51.292;6.868;2022-09-17T09:13:34;4.53;;;1.23;;
33074;SDS011;19433;51.292;6.868;2022-09-17T09:16:37;2.40;;;1.27;;
33074;SDS011;19433;51.292;6.868;2022-09-17T09:19:01;4.47;;;1.43;;
33074;SDS011;19433;51.292;6.868;2022-09-17T09:21:41;2.00;;;1.30;;
33074;SDS011;19433;51.292;6.868;2022-09-17T09:24:39;2.00;;;1.33;;
33074;SDS011;19433;51.292;6.868;2022-09-17T09:35:15;2.73;;;1.33;;
33074;SDS011;19433;51.292;6.868;2022-09-17T09:37:52;1.97;;;1.10;;
33074;SDS011;19433;51.292;6.868;2022-09-17T09:42:55;1.73;;;1.00;;
33074;SDS011;19433;51.292;6.868;2022-09-17T09:48:45;1.67;;;0.83;;
33074;SDS011;19433;51.292;6.868;2022-09-17T09:53:55;1.77;;;1.20;;
33074;SDS011;19433;51.292;6.868;2022-09-17T09:59:12;1.90;;;1.17;;
33074;SDS011;19433;51.292;6.868;2022-09-17T10:01:39;2.17;;;0.93;;
33074;SDS011;19433;51.292;6.868;2022-09-17T10:04:17;2.47;;;1.00;;
33074;SDS011;19433;51.292;6.868;2022-09-17T10:06:48;1.80;;;1.00;;
33074;SDS011;19433;51.292;6.868;2022-09-17T10:09:16;1.50;;;1.17;;
33074;SDS011;19433;51.292;6.868;2022-09-17T10:14:33;3.80;;;1.77;;
33074;SDS011;19433;51.292;6.868;2022-09-17T10:19:45;1.47;;;1.23;;
33074;SDS011;19433;51.292;6.868;2022-09-17T10:22:26;1.73;;;1.03;;
33074;SDS011;19433;51.292;6.868;2022-09-17T10:24:54;3.43;;;0.90;;
33074;SDS011;19433;51.292;6.868;2022-09-17T10:27:22;2.43;;;1.20;;
33074;SDS011;19433;51.292;6.868;2022-09-17T10:29:50;2.30;;;1.33;;
33074;SDS011;19433;51.292;6.868;2022-09-17T10:32:25;2.07;;;1.07;;
33074;SDS011;19433;51.292;6.868;2022-09-17T10:35:24;2.63;;;1.10;;
33074;SDS011;19433;51.292;6.868;2022-09-17T10:43:14;4.37;;;1.10;;
33074;SDS011;19433;51.292;6.868;2022-09-17T10:45:36;1.97;;;0.90;;
33074;SDS011;19433;51.292;6.868;2022-09-17T10:48:04;2.53;;;1.00;;
33074;SDS011;19433;51.292;6.868;2022-09-17T10:50:30;2.10;;;0.90;;
33074;SDS011;19433;51.292;6.868;2022-09-17T10:53:06;4.10;;;0.90;;
33074;SDS011;19433;51.292;6.868;2022-09-17T10:55:49;1.73;;;0.77;;
33074;SDS011;19433;51.292;6.868;2022-09-17T11:15:27;2.20;;;1.00;;
33074;SDS011;19433;51.292;6.868;2022-09-17T11:20:58;2.23;;;1.13;;
33074;SDS011;19433;51.292;6.868;2022-09-17T11:26:10;0.93;;;0.90;;
33074;SDS011;19433;51.292;6.868;2022-09-17T11:29:03;1.77;;;1.20;;
33074;SDS011;19433;51.292;6.868;2022-09-17T11:32:00;2.17;;;1.00;;
33074;SDS011;19433;51.292;6.868;2022-09-17T11:35:00;1.90;;;0.80;;
33074;SDS011;19433;51.292;6.868;2022-09-17T11:37:34;4.50;;;0.77;;
33074;SDS011;19433;51.292;6.868;2022-09-17T11:40:11;2.57;;;0.90;;
33074;SDS011;19433;51.292;6.868;2022-09-17T11:42:49;3.53;;;1.30;;
33074;SDS011;19433;51.292;6.868;2022-09-17T11:45:33;2.80;;;1.00;;
33074;SDS011;19433;51.292;6.868;2022-09-17T11:48:03;1.00;;;0.67;;
33074;SDS011;19433;51.292;6.868;2022-09-17T11:50:44;0.83;;;0.60;;
33074;SDS011;19433;51.292;6.868;2022-09-17T11:53:33;1.60;;;0.70;;
33074;SDS011;19433;51.292;6.868;2022-09-17T11:56:08;2.07;;;0.90;;
33074;SDS011;19433;51.292;6.868;2022-09-17T11:58:46;1.33;;;0.90;;
33074;SDS011;19433;51.292;6.868;2022-09-17T12:01:26;2.67;;;1.10;;
33074;SDS011;19433;51.292;6.868;2022-09-17T12:04:15;0.80;;;0.70;;
33074;SDS011;19433;51.292;6.868;2022-09-17T12:06:54;1.13;;;1.03;;
33074;SDS011;19433;51.292;6.868;2022-09-17T12:09:40;1.43;;;0.90;;
33074;SDS011;19433;51.292;6.868;2022-09-17T12:12:12;0.70;;;0.70;;
33074;SDS011;19433;51.292;6.868;2022-09-17T12:14:46;1.23;;;0.73;;
33074;SDS011;19433;51.292;6.868;2022-09-17T12:17:24;1.27;;;0.60;;
33074;SDS011;19433;51.292;6.868;2022-09-17T12:19:56;0.80;;;0.60;;
33074;SDS011;19433;51.292;6.868;2022-09-17T12:22:26;0.70;;;0.60;;
33074;SDS011;19433;51.292;6.868;2022-09-17T12:24:56;0.83;;;0.80;;
33074;SDS011;19433;51.292;6.868;2022-09-17T12:32:45;2.67;;;0.70;;
33074;SDS011;19433;51.292;6.868;2022-09-17T12:38:12;1.90;;;0.80;;
33074;SDS011;19433;51.292;6.868;2022-09-17T12:41:14;2.73;;;1.07;;
33074;SDS011;19433;51.292;6.868;2022-09-17T12:57:55;2.77;;;0.80;;
33074;SDS011;19433;51.292;6.868;2022-09-17T13:00:25;2.60;;;0.93;;
33074;SDS011;19433;51.292;6.868;2022-09-17T13:14:29;0.93;;;0.80;;
33074;SDS011;19433;51.292;6.868;2022-09-17T13:17:10;1.27;;;0.60;;
33074;SDS011;19433;51.292;6.868;2022-09-17T13:22:48;2.97;;;0.70;;
33074;SDS011;19433;51.292;6.868;2022-09-17T13:25:16;1.57;;;0.70;;
33074;SDS011;19433;51.292;6.868;2022-09-17T13:27:44;1.10;;;0.50;;
33074;SDS011;19433;51.292;6.868;2022-09-17T13:30:15;5.33;;;0.90;;
33074;SDS011;19433;51.292;6.868;2022-09-17T13:32:42;1.50;;;0.80;;
33074;SDS011;19433;51.292;6.868;2022-09-17T13:40:32;0.60;;;0.60;;
33074;SDS011;19433;51.292;6.868;2022-09-17T13:45:27;1.83;;;0.83;;
33074;SDS011;19433;51.292;6.868;2022-09-17T13:47:53;1.73;;;0.90;;
33074;SDS011;19433;51.292;6.868;2022-09-17T13:50:29;1.20;;;0.80;;
33074;SDS011;19433;51.292;6.868;2022-09-17T13:53:38;2.93;;;1.10;;
33074;SDS011;19433;51.292;6.868;2022-09-17T13:55:54;1.20;;;0.60;;
33074;SDS011;19433;51.292;6.868;2022-09-17T13:58:23;2.80;;;1.10;;
33074;SDS011;19433;51.292;6.868;2022-09-17T14:00:53;1.30;;;0.83;;
33074;SDS011;19433;51.292;6.868;2022-09-17T14:08:50;3.43;;;1.40;;
33074;SDS011;19433;51.292;6.868;2022-09-17T14:13:50;1.57;;;1.10;;
33074;SDS011;19433;51.292;6.868;2022-09-17T14:16:24;4.33;;;1.00;;
33074;SDS011;19433;51.292;6.868;2022-09-17T14:18:59;3.43;;;1.23;;
33074;SDS011;19433;51.292;6.868;2022-09-17T14:21:31;1.53;;;1.20;;
33074;SDS011;19433;51.292;6.868;2022-09-17T14:23:59;4.77;;;1.73;;
33074;SDS011;19433;51.292;6.868;2022-09-17T14:26:45;3.60;;;1.37;;
33074;SDS011;19433;51.292;6.868;2022-09-17T14:37:56;4.47;;;1.30;;
33074;SDS011;19433;51.292;6.868;2022-09-17T14:40:26;4.23;;;1.20;;
33074;SDS011;19433;51.292;6.868;2022-09-17T14:42:54;3.07;;;1.20;;
33074;SDS011;19433;51.292;6.868;2022-09-17T14:45:22;5.00;;;2.10;;
33074;SDS011;19433;51.292;6.868;2022-09-17T14:48:36;3.37;;;1.87;;
33074;SDS011;19433;51.292;6.868;2022-09-17T14:50:44;2.33;;;1.90;;
33074;SDS011;19433;51.292;6.868;2022-09-17T14:53:14;5.60;;;2.30;;
33074;SDS011;19433;51.292;6.868;2022-09-17T14:55:41;7.73;;;2.50;;
33074;SDS011;19433;51.292;6.868;2022-09-17T14:58:22;7.30;;;2.60;;
33074;SDS011;19433;51.292;6.868;2022-09-17T15:00:52;5.00;;;2.13;;
33074;SDS011;19433;51.292;6.868;2022-09-17T15:03:21;6.20;;;2.10;;
33074;SDS011;19433;51.292;6.868;2022-09-17T15:05:47;3.13;;;2.13;;
33074;SDS011;19433;51.292;6.868;2022-09-17T15:10:54;5.63;;;1.73;;
33074;SDS011;19433;51.292;6.868;2022-09-17T15:13:24;6.30;;;1.47;;
33074;SDS011;19433;51.292;6.868;2022-09-17T15:15:52;3.07;;;1.10;;
33074;SDS011;19433;51.292;6.868;2022-09-17T15:18:20;7.27;;;1.70;;
33074;SDS011;19433;51.292;6.868;2022-09-17T15:20:50;2.43;;;1.50;;
33074;SDS011;19433;51.292;6.868;2022-09-17T15:23:21;4.83;;;2.10;;
33074;SDS011;19433;51.292;6.868;2022-09-17T15:25:51;8.07;;;1.90;;
33074;SDS011;19433;51.292;6.868;2022-09-17T15:28:53;5.20;;;2.03;;
33074;SDS011;19433;51.292;6.868;2022-09-17T15:31:16;3.13;;;2.13;;
33074;SDS011;19433;51.292;6.868;2022-09-17T15:33:43;4.90;;;2.10;;
33074;SDS011;19433;51.292;6.868;2022-09-17T15:36:20;6.60;;;2.23;;
33074;SDS011;19433;51.292;6.868;2022-09-17T15:38:47;3.47;;;2.37;;
33074;SDS011;19433;51.292;6.868;2022-09-17T15:43:45;5.60;;;2.10;;
33074;SDS011;19433;51.292;6.868;2022-09-17T15:46:24;3.20;;;1.83;;
33074;SDS011;19433;51.292;6.868;2022-09-17T15:48:52;3.30;;;1.67;;
33074;SDS011;19433;51.292;6.868;2022-09-17T15:54:26;5.03;;;2.43;;
33074;SDS011;19433;51.292;6.868;2022-09-17T15:56:56;3.03;;;1.47;;
33074;SDS011;19433;51.292;6.868;2022-09-17T16:01:56;3.13;;;1.30;;
33074;SDS011;19433;51.292;6.868;2022-09-17T16:12:03;4.60;;;1.40;;
33074;SDS011;19433;51.292;6.868;2022-09-17T16:14:28;6.20;;;2.47;;
33074;SDS011;19433;51.292;6.868;2022-09-17T16:16:54;2.40;;;1.93;;
33074;SDS011;19433;51.292;6.868;2022-09-17T16:19:20;4.17;;;2.63;;
33074;SDS011;19433;51.292;6.868;2022-09-17T16:21:46;3.87;;;2.13;;
33074;SDS011;19433;51.292;6.868;2022-09-17T16:24:11;3.27;;;1.60;;
33074;SDS011;19433;51.292;6.868;2022-09-17T16:26:36;4.70;;;1.27;;
33074;SDS011;19433;51.292;6.868;2022-09-17T16:29:03;3.40;;;1.20;;
33074;SDS011;19433;51.292;6.868;2022-09-17T16:31:31;1.57;;;1.00;;
33074;SDS011;19433;51.292;6.868;2022-09-17T16:33:57;5.40;;;1.27;;
33074;SDS011;19433;51.292;6.868;2022-09-17T16:36:22;1.53;;;1.37;;
33074;SDS011;19433;51.292;6.868;2022-09-17T16:38:48;2.67;;;1.30;;
33074;SDS011;19433;51.292;6.868;2022-09-17T16:41:13;2.50;;;0.97;;
33074;SDS011;19433;51.292;6.868;2022-09-17T16:43:38;2.93;;;1.13;;
33074;SDS011;19433;51.292;6.868;2022-09-17T16:46:07;3.00;;;1.00;;
33074;SDS011;19433;51.292;6.868;2022-09-17T16:48:34;1.93;;;1.10;;
33074;SDS011;19433;51.292;6.868;2022-09-17T16:51:05;2.43;;;0.80;;
33074;SDS011;19433;51.292;6.868;2022-09-17T16:53:34;2.37;;;0.97;;
33074;SDS011;19433;51.292;6.868;2022-09-17T16:56:00;1.80;;;0.93;;
33074;SDS011;19433;51.292;6.868;2022-09-17T16:58:25;2.77;;;1.20;;
33074;SDS011;19433;51.292;6.868;2022-09-17T17:00:50;3.87;;;1.60;;
33074;SDS011;19433;51.292;6.868;2022-09-17T17:03:16;4.43;;;1.30;;
33074;SDS011;19433;51.292;6.868;2022-09-17T17:05:41;1.07;;;0.97;;
33074;SDS011;19433;51.292;6.868;2022-09-17T17:08:07;3.33;;;1.77;;
33074;SDS011;19433;51.292;6.868;2022-09-17T17:10:33;1.37;;;1.27;;
33074;SDS011;19433;51.292;6.868;2022-09-17T17:12:59;4.10;;;1.27;;
33074;SDS011;19433;51.292;6.868;2022-09-17T17:15:24;2.40;;;1.10;;
33074;SDS011;19433;51.292;6.868;2022-09-17T17:17:49;4.80;;;1.30;;
33074;SDS011;19433;51.292;6.868;2022-09-17T17:20:15;3.33;;;1.57;;
33074;SDS011;19433;51.292;6.868;2022-09-17T17:22:41;4.83;;;1.33;;
33074;SDS011;19433;51.292;6.868;2022-09-17T17:25:10;3.40;;;1.37;;
33074;SDS011;19433;51.292;6.868;2022-09-17T17:27:36;5.90;;;1.90;;
33074;SDS011;19433;51.292;6.868;2022-09-17T17:30:06;2.87;;;1.50;;
33074;SDS011;19433;51.292;6.868;2022-09-17T17:32:33;3.87;;;1.30;;
33074;SDS011;19433;51.292;6.868;2022-09-17T17:35:00;5.60;;;1.53;;
33074;SDS011;19433;51.292;6.868;2022-09-17T17:37:25;2.20;;;1.30;;
33074;SDS011;19433;51.292;6.868;2022-09-17T17:39:50;7.07;;;1.63;;
33074;SDS011;19433;51.292;6.868;2022-09-17T17:42:16;2.10;;;1.40;;
33074;SDS011;19433;51.292;6.868;2022-09-17T17:44:41;5.23;;;1.77;;
33074;SDS011;19433;51.292;6.868;2022-09-17T17:47:06;5.33;;;1.40;;
33074;SDS011;19433;51.292;6.868;2022-09-17T17:49:32;2.47;;;1.10;;
33074;SDS011;19433;51.292;6.868;2022-09-17T17:51:57;3.50;;;1.43;;
33074;SDS011;19433;51.292;6.868;2022-09-17T17:54:23;5.80;;;2.50;;
33074;SDS011;19433;51.292;6.868;2022-09-17T17:56:49;6.30;;;1.90;;
33074;SDS011;19433;51.292;6.868;2022-09-17T17:59:14;6.67;;;1.80;;
33074;SDS011;19433;51.292;6.868;2022-09-17T18:01:39;5.50;;;3.67;;
33074;SDS011;19433;51.292;6.868;2022-09-17T18:04:05;3.67;;;1.77;;
33074;SDS011;19433;51.292;6.868;2022-09-17T18:06:33;7.13;;;3.17;;
33074;SDS011;19433;51.292;6.868;2022-09-17T18:08:59;3.33;;;2.43;;
33074;SDS011;19433;51.292;6.868;2022-09-17T18:11:24;5.40;;;1.90;;
33074;SDS011;19433;51.292;6.868;2022-09-17T18:13:50;7.00;;;2.70;;
33074;SDS011;19433;51.292;6.868;2022-09-17T18:16:17;5.03;;;1.93;;
33074;SDS011;19433;51.292;6.868;2022-09-17T18:18:43;9.40;;;1.80;;